createdAt,value
2023-04-27T00:01:12.433Z,79.23
2023-04-27T00:03:47.045Z,79.63
2023-04-27T00:06:32.958Z,79.31
2023-04-27T00:09:01.385Z,80.20
2023-04-27T00:11:31.765Z,82.87
2023-04-27T00:14:04.670Z,82.27
2023-04-27T00:16:34.546Z,82.02
2023-04-27T00:19:06.033Z,81.80
2023-04-27T00:21:34.240Z,82.95
2023-04-27T00:24:03.251Z,83.03
2023-04-27T00:26:31.714Z,85.07
2023-04-27T00:29:00.344Z,85.48
2023-04-27T00:31:28.526Z,85.80
2023-04-27T00:33:57.407Z,85.98
2023-04-27T00:36:27.916Z,85.63
2023-04-27T00:38:59.481Z,85.99
2023-04-27T00:41:33.252Z,85.90
2023-04-27T00:44:04.040Z,86.35
2023-04-27T00:46:35.372Z,86.69
2023-04-27T00:49:04.641Z,87.03
2023-04-27T00:51:40.508Z,86.80
2023-04-27T00:54:09.006Z,86.72
2023-04-27T00:56:37.444Z,86.52
2023-04-27T00:59:06.469Z,86.52
2023-04-27T01:01:37.611Z,85.78
2023-04-27T01:04:06.613Z,85.78
2023-04-27T01:06:37.472Z,86.56
2023-04-27T01:09:07.386Z,86.00
2023-04-27T01:11:40.074Z,85.39
2023-04-27T01:14:11.380Z,85.48
2023-04-27T01:16:40.731Z,85.74
2023-04-27T01:19:09.278Z,86.22
2023-04-27T01:21:39.275Z,86.01
2023-04-27T01:24:09.834Z,86.33
2023-04-27T01:26:39.151Z,86.65
2023-04-27T01:29:07.297Z,86.47
2023-04-27T01:31:39.382Z,86.52
2023-04-27T01:34:08.707Z,86.78
2023-04-27T01:36:37.213Z,86.28
2023-04-27T01:39:10.432Z,87.35
2023-04-27T01:41:40.209Z,88.16
2023-04-27T01:44:10.035Z,87.40
2023-04-27T01:46:39.672Z,88.59
2023-04-27T01:49:08.872Z,88.77
2023-04-27T01:51:37.847Z,88.69
2023-04-27T01:54:06.963Z,88.77
2023-04-27T01:56:37.414Z,87.76
2023-04-27T01:59:06.930Z,87.44
2023-04-27T02:01:38.362Z,87.66
2023-04-27T02:04:07.679Z,87.46
2023-04-27T02:06:36.824Z,86.64
2023-04-27T02:09:06.253Z,86.75
2023-04-27T02:11:36.097Z,86.94
2023-04-27T02:14:04.841Z,87.00
2023-04-27T02:16:34.407Z,86.91
2023-04-27T02:19:03.210Z,86.50
2023-04-27T02:21:33.364Z,86.82
2023-04-27T02:24:04.497Z,87.38
2023-04-27T02:26:33.361Z,87.04
2023-04-27T02:29:04.017Z,87.10
2023-04-27T02:31:34.771Z,87.04
2023-04-27T02:34:04.805Z,87.18
2023-04-27T02:36:33.202Z,87.72
2023-04-27T02:39:01.827Z,89.05
2023-04-27T02:41:33.307Z,87.99
2023-04-27T02:44:02.118Z,87.46
2023-04-27T02:46:30.562Z,87.35
2023-04-27T02:49:02.109Z,87.72
2023-04-27T02:51:30.770Z,88.64
2023-04-27T02:53:59.376Z,87.95
2023-04-27T02:56:33.817Z,87.60
2023-04-27T02:59:05.982Z,88.38
2023-04-27T03:01:36.549Z,89.16
2023-04-27T03:04:06.910Z,89.45
2023-04-27T03:06:37.815Z,89.64
2023-04-27T03:09:07.013Z,89.63
2023-04-27T03:11:37.893Z,89.24
2023-04-27T03:14:10.670Z,89.01
2023-04-27T03:16:43.773Z,88.65
2023-04-27T03:19:15.280Z,88.61
2023-04-27T03:21:45.661Z,87.98
2023-04-27T03:24:14.429Z,87.67
2023-04-27T03:26:43.598Z,87.94
2023-04-27T03:29:11.838Z,87.70
2023-04-27T03:31:41.116Z,87.93
2023-04-27T03:34:09.864Z,87.97
2023-04-27T03:36:42.307Z,88.42
2023-04-27T03:39:10.942Z,88.62
2023-04-27T03:41:41.065Z,88.70
2023-04-27T03:44:11.352Z,89.50
2023-04-27T03:46:42.329Z,89.08
2023-04-27T03:49:11.474Z,89.18
2023-04-27T03:51:48.435Z,89.88
2023-04-27T03:54:18.174Z,89.93
2023-04-27T03:56:48.254Z,90.29
2023-04-27T03:59:18.822Z,90.17
2023-04-27T04:01:47.656Z,90.35
2023-04-27T04:04:17.357Z,90.29
2023-04-27T04:06:48.809Z,90.23
2023-04-27T04:09:20.424Z,90.37
2023-04-27T04:11:52.167Z,90.83
2023-04-27T04:14:23.772Z,90.58
2023-04-27T04:16:55.316Z,90.76
2023-04-27T04:19:23.339Z,90.77
2023-04-27T04:21:51.405Z,90.68
2023-04-27T04:24:22.026Z,90.39
2023-04-27T04:26:51.188Z,89.98
2023-04-27T04:29:19.884Z,90.23
2023-04-27T04:31:49.628Z,90.44
2023-04-27T04:34:18.752Z,90.85
2023-04-27T04:36:46.734Z,91.07
2023-04-27T04:39:16.007Z,91.04
2023-04-27T04:41:49.569Z,90.69
2023-04-27T04:44:20.759Z,90.11
2023-04-27T04:46:50.429Z,89.99
2023-04-27T04:49:23.193Z,89.74
2023-04-27T04:51:53.775Z,89.05
2023-04-27T04:54:22.190Z,89.83
2023-04-27T04:56:53.649Z,89.98
2023-04-27T04:59:27.242Z,90.29
2023-04-27T05:01:56.411Z,90.26
2023-04-27T05:04:28.788Z,89.74
2023-04-27T05:06:57.346Z,90.06
2023-04-27T05:09:27.467Z,88.93
2023-04-27T05:12:03.375Z,88.51
2023-04-27T05:14:31.767Z,85.76
2023-04-27T05:17:02.675Z,85.01
2023-04-27T05:19:32.739Z,85.13
2023-04-27T05:22:02.287Z,83.34
2023-04-27T05:24:32.269Z,82.88
2023-04-27T05:27:04.551Z,82.33
2023-04-27T05:29:39.564Z,80.93
2023-04-27T05:32:11.913Z,78.26
2023-04-27T05:34:41.565Z,77.96
2023-04-27T05:37:11.690Z,77.09
2023-04-27T05:39:42.041Z,76.77
2023-04-27T05:42:15.901Z,75.84
2023-04-27T05:44:45.263Z,75.73
2023-04-27T05:47:16.573Z,75.20
2023-04-27T05:49:46.361Z,73.98
2023-04-27T05:52:16.500Z,72.61
2023-04-27T05:54:48.106Z,71.06
2023-04-27T05:57:20.424Z,72.26
2023-04-27T05:59:48.781Z,70.26
2023-04-27T06:02:18.529Z,71.02
2023-04-27T06:04:47.185Z,68.88
2023-04-27T06:07:17.475Z,68.57
2023-04-27T06:09:46.491Z,68.11
2023-04-27T06:12:14.872Z,69.11
2023-04-27T06:14:45.503Z,69.29
2023-04-27T06:17:14.648Z,67.39
2023-04-27T06:19:46.459Z,68.31
2023-04-27T06:22:15.920Z,67.56
2023-04-27T06:24:44.133Z,65.57
2023-04-27T06:27:13.468Z,65.43
2023-04-27T06:29:46.127Z,64.34
2023-04-27T06:32:15.840Z,64.12
2023-04-27T06:34:44.854Z,64.26
2023-04-27T06:37:15.452Z,63.81
2023-04-27T06:39:46.762Z,62.71
2023-04-27T06:42:19.749Z,61.98
2023-04-27T06:44:48.188Z,61.87
2023-04-27T06:47:17.866Z,60.62
2023-04-27T06:49:48.524Z,60.74
2023-04-27T06:52:21.497Z,60.27
2023-04-27T06:54:49.904Z,58.78
2023-04-27T06:57:20.385Z,58.88
2023-04-27T06:59:50.742Z,58.45
2023-04-27T07:02:20.948Z,59.03
2023-04-27T07:04:51.434Z,58.36
2023-04-27T07:07:21.588Z,58.08
2023-04-27T07:09:51.358Z,56.96
2023-04-27T07:12:19.874Z,56.67
2023-04-27T07:14:50.874Z,55.60
2023-04-27T07:17:20.365Z,55.23
2023-04-27T07:19:48.739Z,54.96
2023-04-27T07:22:18.534Z,55.35
2023-04-27T07:24:47.700Z,55.28
2023-04-27T07:27:15.946Z,54.36
2023-04-27T07:29:45.125Z,54.80
2023-04-27T07:32:13.286Z,51.84
2023-04-27T07:34:52.828Z,51.35
2023-04-27T07:37:22.938Z,51.77
2023-04-27T07:39:53.161Z,50.81
2023-04-27T07:42:23.860Z,50.33
2023-04-27T07:44:52.696Z,50.51
2023-04-27T07:47:27.371Z,49.40
2023-04-27T07:49:58.880Z,50.09
2023-04-27T07:52:27.143Z,51.60
2023-04-27T07:54:57.278Z,48.38
2023-04-27T07:57:25.296Z,49.47
2023-04-27T07:59:54.811Z,50.86
2023-04-27T08:02:24.710Z,50.82
2023-04-27T08:04:56.836Z,49.67
2023-04-27T08:07:27.243Z,47.82
2023-04-27T08:09:57.517Z,48.03
2023-04-27T08:12:26.110Z,48.80
2023-04-27T08:14:55.535Z,48.97
2023-04-27T08:17:25.266Z,49.33
2023-04-27T08:19:55.286Z,48.94
2023-04-27T08:22:24.583Z,48.67
2023-04-27T08:24:54.616Z,46.67
2023-04-27T08:27:27.255Z,47.26
2023-04-27T08:29:56.210Z,43.95
2023-04-27T08:32:26.632Z,44.63
2023-04-27T08:34:55.800Z,45.93
2023-04-27T08:37:24.177Z,42.86
2023-04-27T08:39:52.586Z,43.04
2023-04-27T08:42:25.921Z,42.72
2023-04-27T08:44:54.617Z,44.02
2023-04-27T08:47:31.450Z,42.63
2023-04-27T08:50:11.006Z,41.97
2023-04-27T08:52:40.572Z,42.17
2023-04-27T08:55:09.566Z,41.07
2023-04-27T08:57:40.325Z,40.94
2023-04-27T09:00:13.453Z,40.71
2023-04-27T09:02:48.424Z,42.45
2023-04-27T09:05:18.040Z,43.78
2023-04-27T09:07:58.915Z,41.72
2023-04-27T09:10:29.381Z,43.84
2023-04-27T09:13:01.273Z,42.87
2023-04-27T09:15:30.109Z,42.51
2023-04-27T09:17:58.820Z,43.31
2023-04-27T09:20:32.416Z,42.59
2023-04-27T09:23:00.558Z,44.64
2023-04-27T09:25:32.809Z,44.33
2023-04-27T09:28:02.880Z,44.24
2023-04-27T09:30:31.193Z,44.81
2023-04-27T09:33:03.683Z,44.05
2023-04-27T09:35:33.253Z,44.15
2023-04-27T09:38:02.117Z,45.61
2023-04-27T09:40:32.029Z,45.35
2023-04-27T09:43:03.622Z,43.45
2023-04-27T09:45:31.880Z,43.69
2023-04-27T09:48:03.128Z,46.61
2023-04-27T09:50:32.217Z,45.05
2023-04-27T09:53:01.500Z,44.89
2023-04-27T09:55:32.450Z,44.89
2023-04-27T09:58:10.977Z,43.50
2023-04-27T10:04:37.988Z,41.22
2023-04-27T10:07:07.761Z,42.61
2023-04-27T10:09:41.886Z,40.53
2023-04-27T10:12:18.354Z,39.52
2023-04-27T10:14:52.190Z,37.68
2023-04-27T10:17:21.493Z,38.27
2023-04-27T10:19:58.761Z,39.16
2023-04-27T10:22:39.203Z,41.52
2023-04-27T10:25:14.925Z,40.71
2023-04-27T10:27:43.122Z,41.66
2023-04-27T10:30:13.762Z,42.86
2023-04-27T10:32:51.548Z,42.76
2023-04-27T10:35:21.520Z,42.42
2023-04-27T10:37:52.213Z,43.44
2023-04-27T10:40:23.937Z,43.10
2023-04-27T10:42:57.474Z,44.07
2023-04-27T10:45:31.757Z,43.09
2023-04-27T10:48:02.938Z,43.96
2023-04-27T10:50:32.230Z,44.33
2023-04-27T10:53:04.788Z,44.25
2023-04-27T10:55:38.737Z,44.40
2023-04-27T10:58:07.523Z,42.74
2023-04-27T11:00:38.092Z,41.29
2023-04-27T11:03:14.832Z,40.62
2023-04-27T11:05:44.478Z,40.05
2023-04-27T11:08:21.762Z,41.37
2023-04-27T11:10:52.194Z,41.60
2023-04-27T11:13:22.296Z,40.44
2023-04-27T11:15:54.452Z,40.02
2023-04-27T11:18:29.674Z,40.86
2023-04-27T11:21:12.072Z,40.73
2023-04-27T11:23:41.053Z,41.09
2023-04-27T11:26:13.631Z,40.87
2023-04-27T11:28:44.502Z,41.33
2023-04-27T11:31:14.247Z,40.04
2023-04-27T11:33:49.153Z,41.47
2023-04-27T11:36:17.707Z,41.52
2023-04-27T11:38:47.526Z,42.28
2023-04-27T11:41:16.595Z,42.41
2023-04-27T11:43:49.363Z,41.85
2023-04-27T11:46:24.099Z,41.45
2023-04-27T11:48:53.128Z,41.41
2023-04-27T11:51:23.426Z,41.02
2023-04-27T11:53:52.376Z,40.49
2023-04-27T11:56:23.553Z,40.13
2023-04-27T11:58:51.754Z,40.60
2023-04-27T12:01:27.761Z,41.46
2023-04-27T12:04:04.839Z,39.80
2023-04-27T12:06:33.938Z,42.13
2023-04-27T12:09:02.342Z,41.76
2023-04-27T12:11:30.772Z,41.41
2023-04-27T12:13:59.033Z,42.74
2023-04-27T12:16:27.280Z,42.03
2023-04-27T12:18:55.708Z,42.79
2023-04-27T12:21:25.219Z,41.81
2023-04-27T12:23:53.342Z,40.79
2023-04-27T12:26:21.727Z,39.30
2023-04-27T12:28:52.585Z,39.55
2023-04-27T12:31:26.889Z,37.28
2023-04-27T12:33:56.330Z,40.35
2023-04-27T12:36:27.392Z,37.74
2023-04-27T12:38:59.078Z,38.01
2023-04-27T12:41:27.619Z,37.47
2023-04-27T12:43:56.601Z,39.04
2023-04-27T12:46:24.861Z,38.68
2023-04-27T12:48:53.194Z,37.67
2023-04-27T12:51:21.381Z,38.02
2023-04-27T12:53:56.174Z,38.47
2023-04-27T12:56:24.970Z,40.42
2023-04-27T12:58:53.705Z,39.31
2023-04-27T13:01:25.150Z,40.26
2023-04-27T13:03:54.778Z,40.65
2023-04-27T13:06:23.523Z,39.62
2023-04-27T13:08:52.999Z,38.78
2023-04-27T13:11:21.567Z,41.28
2023-04-27T13:13:49.628Z,42.23
2023-04-27T13:16:19.435Z,42.01
2023-04-27T13:19:00.230Z,40.30
2023-04-27T13:21:29.778Z,40.83
2023-04-27T13:24:00.564Z,39.59
2023-04-27T13:26:28.809Z,40.08
2023-04-27T13:28:57.369Z,41.85
2023-04-27T13:31:25.934Z,40.13
2023-04-27T13:33:54.704Z,41.97
2023-04-27T13:36:22.877Z,41.93
2023-04-27T13:38:58.679Z,40.05
2023-04-27T13:41:31.955Z,40.44
2023-04-27T13:44:00.170Z,40.12
2023-04-27T13:46:28.324Z,41.15
2023-04-27T13:48:57.283Z,40.30
2023-04-27T13:51:28.031Z,40.46
2023-04-27T13:53:56.468Z,39.26
2023-04-27T13:56:24.810Z,40.49
2023-04-27T13:58:55.096Z,40.53
2023-04-27T14:01:23.470Z,42.23
2023-04-27T14:03:51.972Z,40.90
2023-04-27T14:06:20.648Z,41.15
2023-04-27T14:08:49.345Z,40.68
2023-04-27T14:11:19.324Z,41.37
2023-04-27T14:13:48.402Z,41.86
2023-04-27T14:16:21.817Z,41.14
2023-04-27T14:18:51.386Z,41.60
2023-04-27T14:21:21.201Z,42.66
2023-04-27T14:23:52.778Z,41.18
2023-04-27T14:26:22.922Z,39.88
2023-04-27T14:28:51.464Z,41.25
2023-04-27T14:31:23.265Z,39.42
2023-04-27T14:33:56.903Z,39.41
2023-04-27T14:36:27.971Z,39.30
2023-04-27T14:38:58.952Z,38.53
2023-04-27T14:41:30.065Z,39.25
2023-04-27T14:44:00.128Z,39.43
2023-04-27T14:46:29.662Z,38.87
2023-04-27T14:48:57.880Z,38.68
2023-04-27T14:51:26.527Z,39.97
2023-04-27T14:53:54.888Z,40.47
2023-04-27T14:56:24.288Z,38.80
2023-04-27T14:58:53.332Z,38.62
2023-04-27T15:01:21.558Z,38.22
2023-04-27T15:03:53.262Z,38.19
2023-04-27T15:06:22.337Z,38.50
2023-04-27T15:08:51.004Z,39.00
2023-04-27T15:11:19.386Z,37.59
2023-04-27T15:13:48.883Z,39.40
2023-04-27T15:16:16.909Z,38.22
2023-04-27T15:18:45.408Z,39.14
2023-04-27T15:21:15.035Z,38.95
2023-04-27T15:23:44.402Z,38.06
2023-04-27T15:26:12.361Z,38.84
2023-04-27T15:28:40.922Z,38.36
2023-04-27T15:31:09.600Z,39.01
2023-04-27T15:33:37.650Z,40.28
2023-04-27T15:36:06.499Z,38.91
2023-04-27T15:38:37.703Z,39.58
2023-04-27T15:41:07.106Z,39.94
2023-04-27T15:43:35.557Z,40.07
2023-04-27T15:46:04.852Z,39.83
2023-04-27T15:48:34.982Z,40.51
2023-04-27T15:51:04.006Z,40.72
2023-04-27T15:53:33.385Z,40.73
2023-04-27T15:56:03.588Z,41.22
2023-04-27T15:58:32.240Z,40.69
2023-04-27T16:01:00.552Z,41.15
2023-04-27T16:03:30.597Z,41.72
2023-04-27T16:05:59.705Z,42.48
2023-04-27T16:08:32.064Z,42.73
2023-04-27T16:11:02.717Z,42.19
2023-04-27T16:13:31.160Z,42.43
2023-04-27T16:15:59.726Z,41.06
2023-04-27T16:18:28.635Z,41.68
2023-04-27T16:20:58.047Z,40.62
2023-04-27T16:23:27.834Z,40.31
2023-04-27T16:25:56.554Z,40.52
2023-04-27T16:28:26.057Z,40.73
2023-04-27T16:30:55.092Z,41.54
2023-04-27T16:33:25.607Z,41.45
2023-04-27T16:35:57.464Z,42.19
2023-04-27T16:38:26.795Z,41.30
2023-04-27T16:40:56.414Z,42.08
2023-04-27T16:43:30.289Z,43.00
2023-04-27T16:45:58.887Z,44.38
2023-04-27T16:48:28.750Z,42.46
2023-04-27T16:50:59.676Z,43.00
2023-04-27T16:53:29.866Z,42.82
2023-04-27T16:56:00.238Z,42.40
2023-04-27T16:58:32.897Z,42.88
2023-04-27T17:01:01.890Z,42.28
2023-04-27T17:03:32.594Z,43.82
2023-04-27T17:06:01.663Z,43.62
2023-04-27T17:08:30.298Z,44.33
2023-04-27T17:11:02.175Z,44.01
2023-04-27T17:13:34.670Z,44.43
2023-04-27T17:16:05.643Z,44.16
2023-04-27T17:18:35.188Z,45.12
2023-04-27T17:21:05.255Z,45.33
2023-04-27T17:23:33.792Z,44.43
2023-04-27T17:26:03.522Z,44.57
2023-04-27T17:28:34.156Z,44.73
2023-04-27T17:31:06.381Z,45.16
2023-04-27T17:33:36.105Z,45.35
2023-04-27T17:36:04.323Z,45.65
2023-04-27T17:38:33.045Z,46.55
2023-04-27T17:41:02.684Z,46.18
2023-04-27T17:43:33.479Z,46.52
2023-04-27T17:46:03.726Z,46.75
2023-04-27T17:48:35.434Z,46.69
2023-04-27T17:51:06.123Z,46.72
2023-04-27T17:53:35.984Z,47.27
2023-04-27T17:56:06.707Z,47.89
2023-04-27T17:58:36.768Z,48.08
2023-04-27T18:01:06.591Z,48.74
2023-04-27T18:03:37.197Z,49.13
2023-04-27T18:06:05.734Z,49.52
2023-04-27T18:08:34.608Z,49.85
2023-04-27T18:11:02.916Z,50.30
2023-04-27T18:13:32.564Z,52.34
2023-04-27T18:16:02.014Z,51.98
2023-04-27T18:18:31.183Z,52.70
2023-04-27T18:20:59.483Z,52.67
2023-04-27T18:23:28.421Z,55.51
2023-04-27T18:26:00.348Z,58.03
2023-04-27T18:28:28.642Z,58.01
2023-04-27T18:30:57.415Z,58.67
2023-04-27T18:33:27.354Z,58.91
2023-04-27T18:35:55.353Z,60.31
2023-04-27T18:38:23.799Z,60.11
2023-04-27T18:40:52.004Z,59.51
2023-04-27T18:43:20.520Z,59.78
2023-04-27T18:45:51.541Z,59.91
2023-04-27T18:48:20.227Z,60.44
2023-04-27T18:50:50.215Z,60.56
2023-04-27T18:53:18.601Z,61.14
2023-04-27T18:55:46.842Z,62.33
2023-04-27T18:58:16.311Z,64.33
2023-04-27T19:00:44.924Z,64.46
2023-04-27T19:03:13.786Z,66.79
2023-04-27T19:05:43.286Z,67.26
2023-04-27T19:08:12.898Z,67.27
2023-04-27T19:10:42.358Z,67.71
2023-04-27T19:13:10.342Z,67.88
2023-04-27T19:15:38.575Z,67.60
2023-04-27T19:18:10.944Z,68.35
2023-04-27T19:20:39.764Z,69.57
2023-04-27T19:23:09.715Z,70.21
2023-04-27T19:25:40.077Z,71.50
2023-04-27T19:28:08.852Z,71.97
2023-04-27T19:30:37.995Z,73.00
2023-04-27T19:33:06.100Z,73.74
2023-04-27T19:35:35.631Z,74.90
2023-04-27T19:38:03.925Z,75.23
2023-04-27T19:40:32.986Z,75.94
2023-04-27T19:43:03.715Z,76.74
2023-04-27T19:45:33.386Z,77.07
2023-04-27T19:48:01.743Z,77.75
2023-04-27T19:50:29.864Z,77.70
2023-04-27T19:52:58.664Z,77.63
2023-04-27T19:55:26.870Z,77.22
2023-04-27T19:57:55.156Z,78.52
2023-04-27T20:00:24.868Z,79.80
2023-04-27T20:02:54.007Z,80.53
2023-04-27T20:05:24.542Z,81.38
2023-04-27T20:07:53.560Z,81.42
2023-04-27T20:10:22.361Z,81.17
2023-04-27T20:12:56.690Z,81.01
2023-04-27T20:15:26.961Z,81.86
2023-04-27T20:17:56.953Z,81.40
2023-04-27T20:20:28.871Z,81.43
2023-04-27T20:22:59.222Z,81.85
2023-04-27T20:25:27.336Z,82.28
2023-04-27T20:27:55.757Z,81.81
2023-04-27T20:30:28.030Z,81.59
2023-04-27T20:32:59.359Z,81.69
2023-04-27T20:35:30.284Z,81.54
2023-04-27T20:38:00.433Z,81.53
2023-04-27T20:40:30.071Z,81.50
2023-04-27T20:42:58.541Z,81.37
2023-04-27T20:45:26.528Z,81.92
2023-04-27T20:47:54.962Z,82.46
2023-04-27T20:50:25.130Z,82.35
2023-04-27T20:55:59.176Z,82.89
2023-04-27T20:58:28.567Z,82.80
2023-04-27T21:00:59.859Z,82.29
2023-04-27T21:03:29.275Z,81.61
2023-04-27T21:05:59.192Z,81.79
2023-04-27T21:08:28.145Z,82.07
2023-04-27T21:10:57.625Z,82.83
2023-04-27T21:13:27.662Z,82.51
2023-04-27T21:15:57.379Z,82.53
2023-04-27T21:18:30.293Z,82.58
2023-04-27T21:21:01.709Z,83.13
2023-04-27T21:23:29.957Z,83.36
2023-04-27T21:26:00.850Z,83.99
2023-04-27T21:28:30.261Z,83.86
2023-04-27T21:30:58.946Z,83.96
2023-04-27T21:33:28.732Z,84.64
2023-04-27T21:35:57.260Z,84.88
2023-04-27T21:38:29.088Z,85.26
2023-04-27T21:40:57.704Z,85.29
2023-04-27T21:43:26.118Z,85.43
2023-04-27T21:45:54.379Z,85.16
2023-04-27T21:48:23.777Z,85.76
2023-04-27T21:50:53.451Z,86.14
2023-04-27T21:53:25.764Z,85.51
2023-04-27T21:55:57.197Z,86.25
2023-04-27T21:58:25.503Z,86.77
2023-04-27T22:00:56.642Z,86.29
2023-04-27T22:03:25.158Z,86.25
2023-04-27T22:05:57.828Z,87.03
2023-04-27T22:08:28.424Z,87.50
2023-04-27T22:10:58.159Z,87.34
2023-04-27T22:13:26.359Z,87.14
2023-04-27T22:15:54.790Z,87.17
2023-04-27T22:18:24.428Z,88.22
2023-04-27T22:20:55.263Z,88.68
2023-04-27T22:23:23.868Z,88.42
2023-04-27T22:25:54.581Z,88.76
2023-04-27T22:28:24.873Z,88.63
2023-04-27T22:30:54.069Z,88.26
2023-04-27T22:33:23.255Z,88.06
2023-04-27T22:35:55.929Z,88.11
2023-04-27T22:38:28.513Z,87.39
2023-04-27T22:40:59.090Z,88.48
2023-04-27T22:43:28.924Z,88.35
2023-04-27T22:45:56.827Z,88.57
2023-04-27T22:48:28.650Z,87.82
2023-04-27T22:50:57.581Z,88.20
2023-04-27T22:53:33.423Z,87.95
2023-04-27T22:56:04.289Z,88.76
2023-04-27T22:58:36.910Z,88.31
2023-04-27T23:01:05.622Z,88.13
2023-04-27T23:03:34.529Z,88.02
2023-04-27T23:06:03.058Z,88.05
2023-04-27T23:08:32.900Z,88.32
2023-04-27T23:11:03.177Z,88.07
2023-04-27T23:13:31.689Z,88.50
2023-04-27T23:16:05.103Z,89.00
2023-04-27T23:18:35.305Z,89.24
2023-04-27T23:21:06.547Z,89.03
2023-04-27T23:23:35.142Z,89.15
2023-04-27T23:26:03.556Z,89.01
2023-04-27T23:28:33.907Z,89.08
2023-04-27T23:31:04.665Z,89.11
2023-04-27T23:33:33.854Z,89.58
2023-04-27T23:36:02.120Z,89.74
2023-04-27T23:38:31.408Z,90.15
2023-04-27T23:41:01.897Z,90.88
2023-04-27T23:43:30.294Z,91.37
2023-04-27T23:45:58.716Z,91.51
2023-04-27T23:48:29.620Z,91.14
2023-04-27T23:51:03.220Z,90.91
2023-04-27T23:53:31.945Z,90.65
2023-04-27T23:56:00.437Z,91.15
2023-04-27T23:58:29.067Z,90.78
